Christmas theme

*

Sretan Božić i Nova godina!

 

Merry Christmas and Happy New Year!

 

Merry Christmas and Happy New Year!

 

Sretan Božić i Nova godina!

 

METAR

METAR LDZA 110900Z 24003KT CAVOK 00/M01 Q1022 NOSIG =
METAR LDSP 110900Z 06009KT 020V080 CAVOK 12/M00 Q1013 NOSIG=
METAR LDDU 110900Z 03015KT 330V110 CAVOK 13/M00 Q1010 NOSIG =
METAR LDZD 110900Z 04008KT 330V100 CAVOK 10/M03 Q1015 NOSIG =
METAR LDPL 110900Z 06014KT CAVOK 07/M05 Q1016 NOSIG=
METAR LDOS 110930Z 34005KT CAVOK 02/M01 Q1020=
METAR LDRI 110900Z 05012KT CAVOK 07/M10 Q1017=

TAF

TAF LDZA 110525Z 1106/1206 VRB02KT 9999 SCT030
                 TX03/1112Z TNM04/1106Z
    PROB30 TEMPO 1200/1206 BKN010=
TAF LDSP 110525Z 1106/1206 03012KT CAVOK
                 TX14/1112Z TN05/1201Z
    PROB30 TEMPO 1106/1109 03015G25KT
           BECMG 1110/1112 05006KT=
TAF LDDU 110525Z 1106/1206 02020G33KT CAVOK
                 TX13/1112Z TN07/1205Z
           BECMG 1106/1108 02018KT
           TEMPO 1110/1116 32008KT=
TAF LDZD 110525Z 1106/1206 06008KT CAVOK
                 TX11/1112Z TNM01/1203Z
    PROB40 TEMPO 1106/1115 34007KT=
TAF LDPL 110525Z 1106/1206 02006KT CAVOK
                 TX09/1113Z TN00/1205Z
    PROB40 TEMPO 1106/1112 05012KT=
TAF LDOS 110525Z 1106/1206 30006KT 9999 SCT035
                 TX05/1112Z TN00/1205Z
           BECMG 1117/1119 11006KT
    PROB30 TEMPO 1118/1200 BKN010
           BECMG 1200/1202 BKN005
    PROB40 TEMPO 1201/1206 1200 -RA BCFG
    PROB30 TEMPO 1203/1206 -FZRA=
TAF LDRI 110525Z 1106/1206 06008KT CAVOK
                 TX09/1113Z TN01/1205Z
           TEMPO 1106/1111 VRB10KT
    PROB30 TEMPO 1106/1112 06015G30KT=

SIGMET

LDZO SIGMET U03 VALID 110700/111100 LDZA-
LDZO ZAGREB FIR SEV TURB FCST WI N4433 E01443 - N4518 E01419 - N4533
E01435 - N4442 E01508 - N4407 E01556 - N4359 E01539 - N4433 E01443
SFC/6000FT STNR WKN=

AIRMET

LDZO AIRMET 1 VALID 110700/111100 LDZA-
LDZO ZAGREB FIR MOD TURB FCST WI N4537 E01432 - N4230 E01833 - N4211
E01830 - N4254 E01717 - N4328 E01621 - N4534 E01323 - N4537 E01432
SFC/6000FT STNR WKN=

Remark

Ukoliko se brzina i smjer vjetra ne mogu odrediti zbog privremenog kvara sustava/indikatora,
informacija o vjetru u METAR izvješću bit će prikazana kao "/////KT".

 

Disclaimer

 

In case of temporary system/sensor failure, wind speed and direction data will be represented as "/////KT" in METAR report.

 

If you cannot log in with your user account, please contact stjepko.jancijev@crocontrol.hr.
Specifically, the website deactivates user accounts that have not been used for more than 365 days, so they must be reactivated.
 

         

      Politika MET podataka      

 

Ukoliko se svojim korisničkim računom ne možete logirati na web stranicu, molim vas da se obratite na stjepko.jancijev@crocontrol.hr.

Naime, web stranica deaktivira korisničke račune koji nisu korišteni više od 365 dana te ih je potrebno ponovno aktivirati.